sensor_id;sensor_type;location;lat;lon;timestamp;P1;durP1;ratioP1;P2;durP2;ratioP2
59587;SDS011;45412;54.472;18.464;2023-02-01T00:03:01;7.80;;;1.60;;
59587;SDS011;45412;54.472;18.464;2023-02-01T00:05:59;5.60;;;1.40;;
59587;SDS011;45412;54.472;18.464;2023-02-01T00:08:47;7.00;;;1.80;;
59587;SDS011;45412;54.472;18.464;2023-02-01T00:11:38;8.40;;;1.60;;
59587;SDS011;45412;54.472;18.464;2023-02-01T00:14:27;7.60;;;1.70;;
59587;SDS011;45412;54.472;18.464;2023-02-01T00:17:15;7.90;;;1.80;;
59587;SDS011;45412;54.472;18.464;2023-02-01T00:20:04;11.40;;;2.00;;
59587;SDS011;45412;54.472;18.464;2023-02-01T00:22:52;8.40;;;1.40;;
59587;SDS011;45412;54.472;18.464;2023-02-01T00:25:40;7.10;;;1.30;;
59587;SDS011;45412;54.472;18.464;2023-02-01T00:28:28;7.70;;;1.80;;
59587;SDS011;45412;54.472;18.464;2023-02-01T00:31:16;7.70;;;1.40;;
59587;SDS011;45412;54.472;18.464;2023-02-01T00:34:04;9.60;;;1.70;;
59587;SDS011;45412;54.472;18.464;2023-02-01T00:36:53;10.40;;;1.80;;
59587;SDS011;45412;54.472;18.464;2023-02-01T00:39:42;8.70;;;1.40;;
59587;SDS011;45412;54.472;18.464;2023-02-01T00:42:30;8.90;;;1.40;;
59587;SDS011;45412;54.472;18.464;2023-02-01T00:45:19;5.30;;;1.30;;
59587;SDS011;45412;54.472;18.464;2023-02-01T00:48:07;7.90;;;1.50;;
59587;SDS011;45412;54.472;18.464;2023-02-01T00:51:05;10.40;;;2.00;;
59587;SDS011;45412;54.472;18.464;2023-02-01T00:53:56;9.50;;;1.50;;
59587;SDS011;45412;54.472;18.464;2023-02-01T00:56:45;8.50;;;1.90;;
59587;SDS011;45412;54.472;18.464;2023-02-01T00:59:33;7.50;;;1.20;;
59587;SDS011;45412;54.472;18.464;2023-02-01T01:02:21;8.10;;;1.50;;
59587;SDS011;45412;54.472;18.464;2023-02-01T01:05:09;8.10;;;1.60;;
59587;SDS011;45412;54.472;18.464;2023-02-01T01:07:57;10.50;;;1.70;;
59587;SDS011;45412;54.472;18.464;2023-02-01T01:10:45;7.00;;;1.30;;
59587;SDS011;45412;54.472;18.464;2023-02-01T01:13:33;7.60;;;1.50;;
59587;SDS011;45412;54.472;18.464;2023-02-01T01:16:22;9.00;;;1.40;;
59587;SDS011;45412;54.472;18.464;2023-02-01T01:19:11;6.50;;;1.60;;
59587;SDS011;45412;54.472;18.464;2023-02-01T01:22:00;7.80;;;1.70;;
59587;SDS011;45412;54.472;18.464;2023-02-01T01:24:47;5.50;;;1.20;;
59587;SDS011;45412;54.472;18.464;2023-02-01T01:27:35;7.10;;;1.30;;
59587;SDS011;45412;54.472;18.464;2023-02-01T01:30:24;6.50;;;1.30;;
59587;SDS011;45412;54.472;18.464;2023-02-01T01:33:12;5.60;;;1.50;;
59587;SDS011;45412;54.472;18.464;2023-02-01T01:36:01;6.60;;;1.30;;
59587;SDS011;45412;54.472;18.464;2023-02-01T01:38:49;6.90;;;1.30;;
59587;SDS011;45412;54.472;18.464;2023-02-01T01:41:38;5.40;;;1.20;;
59587;SDS011;45412;54.472;18.464;2023-02-01T01:47:51;8.40;;;1.30;;
59587;SDS011;45412;54.472;18.464;2023-02-01T01:50:46;9.10;;;1.60;;
59587;SDS011;45412;54.472;18.464;2023-02-01T01:54:36;10.00;;;1.80;;
59587;SDS011;45412;54.472;18.464;2023-02-01T01:57:09;9.50;;;1.60;;
59587;SDS011;45412;54.472;18.464;2023-02-01T02:03:34;7.00;;;1.90;;
59587;SDS011;45412;54.472;18.464;2023-02-01T02:09:35;9.70;;;1.30;;
59587;SDS011;45412;54.472;18.464;2023-02-01T02:12:24;8.00;;;1.60;;
59587;SDS011;45412;54.472;18.464;2023-02-01T02:15:14;13.90;;;1.60;;
59587;SDS011;45412;54.472;18.464;2023-02-01T02:18:43;9.40;;;1.40;;
59587;SDS011;45412;54.472;18.464;2023-02-01T02:35:36;10.40;;;2.40;;
59587;SDS011;45412;54.472;18.464;2023-02-01T02:39:00;10.80;;;3.00;;
59587;SDS011;45412;54.472;18.464;2023-02-01T02:42:13;13.50;;;3.20;;
59587;SDS011;45412;54.472;18.464;2023-02-01T02:45:37;11.20;;;2.70;;
59587;SDS011;45412;54.472;18.464;2023-02-01T02:49:11;10.80;;;2.50;;
59587;SDS011;45412;54.472;18.464;2023-02-01T02:52:12;13.20;;;2.60;;
59587;SDS011;45412;54.472;18.464;2023-02-01T02:55:24;12.00;;;2.50;;
59587;SDS011;45412;54.472;18.464;2023-02-01T02:58:14;14.10;;;2.80;;
59587;SDS011;45412;54.472;18.464;2023-02-01T03:01:22;6.60;;;1.60;;
59587;SDS011;45412;54.472;18.464;2023-02-01T03:04:29;12.40;;;2.20;;
59587;SDS011;45412;54.472;18.464;2023-02-01T03:11:02;10.60;;;2.40;;
59587;SDS011;45412;54.472;18.464;2023-02-01T03:13:59;15.30;;;2.10;;
59587;SDS011;45412;54.472;18.464;2023-02-01T03:16:51;7.30;;;1.80;;
59587;SDS011;45412;54.472;18.464;2023-02-01T03:19:47;7.80;;;1.70;;
59587;SDS011;45412;54.472;18.464;2023-02-01T03:22:38;11.40;;;2.20;;
59587;SDS011;45412;54.472;18.464;2023-02-01T03:25:30;7.90;;;1.60;;
59587;SDS011;45412;54.472;18.464;2023-02-01T03:28:20;10.90;;;1.90;;
59587;SDS011;45412;54.472;18.464;2023-02-01T03:31:12;9.80;;;2.10;;
59587;SDS011;45412;54.472;18.464;2023-02-01T03:34:01;5.30;;;1.30;;
59587;SDS011;45412;54.472;18.464;2023-02-01T03:36:56;11.80;;;2.10;;
59587;SDS011;45412;54.472;18.464;2023-02-01T03:40:00;9.10;;;1.30;;
59587;SDS011;45412;54.472;18.464;2023-02-01T03:42:54;8.80;;;1.60;;
59587;SDS011;45412;54.472;18.464;2023-02-01T03:45:49;8.20;;;1.60;;
59587;SDS011;45412;54.472;18.464;2023-02-01T03:48:41;10.60;;;1.70;;
59587;SDS011;45412;54.472;18.464;2023-02-01T03:51:29;8.10;;;1.50;;
59587;SDS011;45412;54.472;18.464;2023-02-01T03:54:20;6.20;;;1.30;;
59587;SDS011;45412;54.472;18.464;2023-02-01T03:57:11;6.50;;;1.30;;
59587;SDS011;45412;54.472;18.464;2023-02-01T04:00:24;7.70;;;1.50;;
59587;SDS011;45412;54.472;18.464;2023-02-01T04:03:14;9.90;;;1.60;;
59587;SDS011;45412;54.472;18.464;2023-02-01T04:06:01;11.50;;;1.80;;
59587;SDS011;45412;54.472;18.464;2023-02-01T04:08:50;8.90;;;1.40;;
59587;SDS011;45412;54.472;18.464;2023-02-01T04:11:38;10.30;;;1.70;;
59587;SDS011;45412;54.472;18.464;2023-02-01T04:14:26;8.30;;;1.90;;
59587;SDS011;45412;54.472;18.464;2023-02-01T04:17:14;10.60;;;1.40;;
59587;SDS011;45412;54.472;18.464;2023-02-01T04:20:01;6.70;;;1.90;;
59587;SDS011;45412;54.472;18.464;2023-02-01T04:22:50;11.00;;;1.60;;
59587;SDS011;45412;54.472;18.464;2023-02-01T04:25:37;9.20;;;1.60;;
59587;SDS011;45412;54.472;18.464;2023-02-01T04:28:26;6.80;;;1.70;;
59587;SDS011;45412;54.472;18.464;2023-02-01T04:31:14;10.50;;;1.80;;
59587;SDS011;45412;54.472;18.464;2023-02-01T04:34:03;9.30;;;1.80;;
59587;SDS011;45412;54.472;18.464;2023-02-01T04:36:51;10.40;;;1.60;;
59587;SDS011;45412;54.472;18.464;2023-02-01T04:39:39;9.70;;;2.20;;
59587;SDS011;45412;54.472;18.464;2023-02-01T04:42:27;11.30;;;1.70;;
59587;SDS011;45412;54.472;18.464;2023-02-01T04:45:15;9.40;;;1.60;;
59587;SDS011;45412;54.472;18.464;2023-02-01T04:48:04;12.10;;;2.10;;
59587;SDS011;45412;54.472;18.464;2023-02-01T04:50:52;14.30;;;2.10;;
59587;SDS011;45412;54.472;18.464;2023-02-01T04:53:40;8.80;;;1.70;;
59587;SDS011;45412;54.472;18.464;2023-02-01T04:56:28;13.60;;;1.80;;
59587;SDS011;45412;54.472;18.464;2023-02-01T04:59:16;10.30;;;1.70;;
59587;SDS011;45412;54.472;18.464;2023-02-01T05:02:04;10.30;;;1.80;;
59587;SDS011;45412;54.472;18.464;2023-02-01T05:04:52;10.60;;;2.00;;
59587;SDS011;45412;54.472;18.464;2023-02-01T05:07:42;11.60;;;1.60;;
59587;SDS011;45412;54.472;18.464;2023-02-01T05:10:30;11.30;;;1.80;;
59587;SDS011;45412;54.472;18.464;2023-02-01T05:13:19;12.50;;;2.30;;
59587;SDS011;45412;54.472;18.464;2023-02-01T05:16:29;11.10;;;2.00;;
59587;SDS011;45412;54.472;18.464;2023-02-01T05:19:17;11.30;;;1.80;;
59587;SDS011;45412;54.472;18.464;2023-02-01T05:22:05;10.20;;;2.20;;
59587;SDS011;45412;54.472;18.464;2023-02-01T05:24:53;9.90;;;2.00;;
59587;SDS011;45412;54.472;18.464;2023-02-01T05:27:41;8.70;;;1.80;;
59587;SDS011;45412;54.472;18.464;2023-02-01T05:30:29;11.00;;;1.80;;
59587;SDS011;45412;54.472;18.464;2023-02-01T05:33:20;9.40;;;1.80;;
59587;SDS011;45412;54.472;18.464;2023-02-01T05:36:09;6.70;;;1.30;;
59587;SDS011;45412;54.472;18.464;2023-02-01T05:38:57;8.40;;;1.50;;
59587;SDS011;45412;54.472;18.464;2023-02-01T05:41:47;7.20;;;1.70;;
59587;SDS011;45412;54.472;18.464;2023-02-01T05:44:35;8.50;;;1.80;;
59587;SDS011;45412;54.472;18.464;2023-02-01T05:47:23;10.40;;;1.90;;
59587;SDS011;45412;54.472;18.464;2023-02-01T05:50:13;11.10;;;1.70;;
59587;SDS011;45412;54.472;18.464;2023-02-01T05:53:05;11.20;;;2.10;;
59587;SDS011;45412;54.472;18.464;2023-02-01T05:55:53;14.30;;;2.50;;
59587;SDS011;45412;54.472;18.464;2023-02-01T05:58:40;11.90;;;2.10;;
59587;SDS011;45412;54.472;18.464;2023-02-01T06:01:29;11.90;;;2.10;;
59587;SDS011;45412;54.472;18.464;2023-02-01T06:04:21;12.00;;;2.30;;
59587;SDS011;45412;54.472;18.464;2023-02-01T06:07:09;12.50;;;2.20;;
59587;SDS011;45412;54.472;18.464;2023-02-01T06:09:58;13.10;;;2.90;;
59587;SDS011;45412;54.472;18.464;2023-02-01T06:12:48;11.90;;;2.40;;
59587;SDS011;45412;54.472;18.464;2023-02-01T06:15:36;11.20;;;2.00;;
59587;SDS011;45412;54.472;18.464;2023-02-01T06:18:25;14.60;;;2.30;;
59587;SDS011;45412;54.472;18.464;2023-02-01T06:21:14;14.30;;;2.30;;
59587;SDS011;45412;54.472;18.464;2023-02-01T06:24:11;13.20;;;1.80;;
59587;SDS011;45412;54.472;18.464;2023-02-01T06:26:59;9.90;;;2.00;;
59587;SDS011;45412;54.472;18.464;2023-02-01T06:29:49;11.60;;;2.40;;
59587;SDS011;45412;54.472;18.464;2023-02-01T06:32:42;13.00;;;1.90;;
59587;SDS011;45412;54.472;18.464;2023-02-01T06:35:29;12.80;;;1.90;;
59587;SDS011;45412;54.472;18.464;2023-02-01T06:38:18;11.80;;;2.80;;
59587;SDS011;45412;54.472;18.464;2023-02-01T06:41:06;15.90;;;2.20;;
59587;SDS011;45412;54.472;18.464;2023-02-01T06:43:54;14.20;;;2.00;;
59587;SDS011;45412;54.472;18.464;2023-02-01T06:46:44;14.20;;;2.50;;
59587;SDS011;45412;54.472;18.464;2023-02-01T06:49:32;14.80;;;2.00;;
59587;SDS011;45412;54.472;18.464;2023-02-01T06:52:20;13.60;;;2.40;;
59587;SDS011;45412;54.472;18.464;2023-02-01T06:55:11;15.20;;;2.10;;
59587;SDS011;45412;54.472;18.464;2023-02-01T06:58:00;14.80;;;2.30;;
59587;SDS011;45412;54.472;18.464;2023-02-01T07:00:49;13.20;;;2.20;;
59587;SDS011;45412;54.472;18.464;2023-02-01T07:03:38;14.50;;;2.50;;
59587;SDS011;45412;54.472;18.464;2023-02-01T07:06:26;13.70;;;2.40;;
59587;SDS011;45412;54.472;18.464;2023-02-01T07:09:14;16.00;;;2.20;;
59587;SDS011;45412;54.472;18.464;2023-02-01T07:12:02;16.60;;;2.40;;
59587;SDS011;45412;54.472;18.464;2023-02-01T07:14:51;15.40;;;2.80;;
59587;SDS011;45412;54.472;18.464;2023-02-01T07:17:38;10.40;;;2.40;;
59587;SDS011;45412;54.472;18.464;2023-02-01T07:20:27;15.10;;;2.20;;
59587;SDS011;45412;54.472;18.464;2023-02-01T07:23:14;13.30;;;2.20;;
59587;SDS011;45412;54.472;18.464;2023-02-01T07:26:04;14.60;;;2.10;;
59587;SDS011;45412;54.472;18.464;2023-02-01T07:28:54;12.50;;;2.00;;
59587;SDS011;45412;54.472;18.464;2023-02-01T07:31:44;14.00;;;2.30;;
59587;SDS011;45412;54.472;18.464;2023-02-01T07:34:33;13.50;;;2.70;;
59587;SDS011;45412;54.472;18.464;2023-02-01T07:37:24;13.80;;;2.40;;
59587;SDS011;45412;54.472;18.464;2023-02-01T07:40:14;11.00;;;2.30;;
59587;SDS011;45412;54.472;18.464;2023-02-01T07:43:03;11.00;;;2.20;;
59587;SDS011;45412;54.472;18.464;2023-02-01T07:45:54;16.50;;;2.60;;
59587;SDS011;45412;54.472;18.464;2023-02-01T07:48:45;12.70;;;2.70;;
59587;SDS011;45412;54.472;18.464;2023-02-01T07:51:33;15.20;;;2.50;;
59587;SDS011;45412;54.472;18.464;2023-02-01T07:54:21;13.00;;;2.60;;
59587;SDS011;45412;54.472;18.464;2023-02-01T07:57:11;13.90;;;2.30;;
59587;SDS011;45412;54.472;18.464;2023-02-01T08:00:00;12.50;;;2.70;;
59587;SDS011;45412;54.472;18.464;2023-02-01T08:03:07;17.40;;;3.00;;
59587;SDS011;45412;54.472;18.464;2023-02-01T08:05:56;12.50;;;2.30;;
59587;SDS011;45412;54.472;18.464;2023-02-01T08:08:44;18.50;;;2.90;;
59587;SDS011;45412;54.472;18.464;2023-02-01T08:11:35;13.20;;;2.40;;
59587;SDS011;45412;54.472;18.464;2023-02-01T08:14:25;14.60;;;2.90;;
59587;SDS011;45412;54.472;18.464;2023-02-01T08:17:13;17.50;;;2.60;;
59587;SDS011;45412;54.472;18.464;2023-02-01T08:20:01;13.00;;;2.30;;
59587;SDS011;45412;54.472;18.464;2023-02-01T08:22:50;13.30;;;3.00;;
59587;SDS011;45412;54.472;18.464;2023-02-01T08:25:43;18.50;;;2.70;;
59587;SDS011;45412;54.472;18.464;2023-02-01T08:28:34;14.60;;;2.90;;
59587;SDS011;45412;54.472;18.464;2023-02-01T08:31:28;16.50;;;2.90;;
59587;SDS011;45412;54.472;18.464;2023-02-01T08:34:16;17.20;;;3.10;;
59587;SDS011;45412;54.472;18.464;2023-02-01T08:37:04;17.90;;;3.40;;
59587;SDS011;45412;54.472;18.464;2023-02-01T08:39:57;14.90;;;3.80;;
59587;SDS011;45412;54.472;18.464;2023-02-01T08:42:45;14.30;;;2.80;;
59587;SDS011;45412;54.472;18.464;2023-02-01T08:45:40;13.50;;;3.30;;
59587;SDS011;45412;54.472;18.464;2023-02-01T08:48:29;13.80;;;2.60;;
59587;SDS011;45412;54.472;18.464;2023-02-01T08:51:21;13.40;;;3.00;;
59587;SDS011;45412;54.472;18.464;2023-02-01T08:54:13;16.20;;;3.30;;
59587;SDS011;45412;54.472;18.464;2023-02-01T08:57:01;14.40;;;2.90;;
59587;SDS011;45412;54.472;18.464;2023-02-01T08:59:55;13.00;;;2.90;;
59587;SDS011;45412;54.472;18.464;2023-02-01T09:02:43;13.70;;;3.30;;
59587;SDS011;45412;54.472;18.464;2023-02-01T09:05:33;15.10;;;3.10;;
59587;SDS011;45412;54.472;18.464;2023-02-01T09:08:41;16.60;;;3.00;;
59587;SDS011;45412;54.472;18.464;2023-02-01T09:11:32;13.30;;;2.90;;
59587;SDS011;45412;54.472;18.464;2023-02-01T09:14:20;14.10;;;2.90;;
59587;SDS011;45412;54.472;18.464;2023-02-01T09:17:08;19.70;;;3.10;;
59587;SDS011;45412;54.472;18.464;2023-02-01T09:19:56;10.80;;;2.20;;
59587;SDS011;45412;54.472;18.464;2023-02-01T09:22:44;12.50;;;2.20;;
59587;SDS011;45412;54.472;18.464;2023-02-01T09:25:33;14.10;;;3.00;;
59587;SDS011;45412;54.472;18.464;2023-02-01T09:28:21;14.30;;;2.60;;
59587;SDS011;45412;54.472;18.464;2023-02-01T09:31:09;13.10;;;2.40;;
59587;SDS011;45412;54.472;18.464;2023-02-01T09:33:58;10.80;;;2.10;;
59587;SDS011;45412;54.472;18.464;2023-02-01T09:36:46;13.10;;;2.70;;
59587;SDS011;45412;54.472;18.464;2023-02-01T09:39:34;12.30;;;2.30;;
59587;SDS011;45412;54.472;18.464;2023-02-01T09:43:04;10.60;;;2.40;;
59587;SDS011;45412;54.472;18.464;2023-02-01T09:49:24;11.60;;;2.10;;
59587;SDS011;45412;54.472;18.464;2023-02-01T09:56:24;12.20;;;3.00;;
59587;SDS011;45412;54.472;18.464;2023-02-01T09:59:28;10.80;;;2.60;;
59587;SDS011;45412;54.472;18.464;2023-02-01T10:02:29;10.90;;;2.50;;
59587;SDS011;45412;54.472;18.464;2023-02-01T10:05:34;12.70;;;2.70;;
59587;SDS011;45412;54.472;18.464;2023-02-01T10:15:24;7.50;;;1.90;;
59587;SDS011;45412;54.472;18.464;2023-02-01T10:22:06;8.40;;;2.00;;
59587;SDS011;45412;54.472;18.464;2023-02-01T10:25:23;12.00;;;2.50;;
59587;SDS011;45412;54.472;18.464;2023-02-01T10:28:16;8.90;;;2.30;;
59587;SDS011;45412;54.472;18.464;2023-02-01T10:31:05;10.50;;;2.50;;
59587;SDS011;45412;54.472;18.464;2023-02-01T10:33:59;9.30;;;2.10;;
59587;SDS011;45412;54.472;18.464;2023-02-01T10:37:01;11.10;;;2.40;;
59587;SDS011;45412;54.472;18.464;2023-02-01T10:40:21;11.20;;;2.00;;
59587;SDS011;45412;54.472;18.464;2023-02-01T10:43:11;10.80;;;2.40;;
59587;SDS011;45412;54.472;18.464;2023-02-01T10:45:59;12.80;;;2.60;;
59587;SDS011;45412;54.472;18.464;2023-02-01T10:48:48;10.70;;;2.50;;
59587;SDS011;45412;54.472;18.464;2023-02-01T10:51:47;8.80;;;2.50;;
59587;SDS011;45412;54.472;18.464;2023-02-01T10:55:30;10.30;;;2.10;;
59587;SDS011;45412;54.472;18.464;2023-02-01T10:58:31;8.20;;;2.40;;
59587;SDS011;45412;54.472;18.464;2023-02-01T11:04:18;11.70;;;2.30;;
59587;SDS011;45412;54.472;18.464;2023-02-01T11:07:22;11.90;;;2.40;;
59587;SDS011;45412;54.472;18.464;2023-02-01T11:10:34;13.00;;;2.60;;
59587;SDS011;45412;54.472;18.464;2023-02-01T11:13:22;10.50;;;2.80;;
59587;SDS011;45412;54.472;18.464;2023-02-01T11:16:18;10.20;;;2.60;;
59587;SDS011;45412;54.472;18.464;2023-02-01T11:19:06;10.60;;;2.40;;
59587;SDS011;45412;54.472;18.464;2023-02-01T11:21:58;10.20;;;2.40;;
59587;SDS011;45412;54.472;18.464;2023-02-01T11:24:49;14.70;;;2.60;;
59587;SDS011;45412;54.472;18.464;2023-02-01T11:27:39;10.60;;;2.30;;
59587;SDS011;45412;54.472;18.464;2023-02-01T11:30:42;9.00;;;1.90;;
59587;SDS011;45412;54.472;18.464;2023-02-01T11:33:48;10.20;;;2.30;;
59587;SDS011;45412;54.472;18.464;2023-02-01T11:36:42;7.70;;;1.80;;
59587;SDS011;45412;54.472;18.464;2023-02-01T11:39:34;8.60;;;2.40;;
59587;SDS011;45412;54.472;18.464;2023-02-01T11:42:22;8.40;;;2.10;;
59587;SDS011;45412;54.472;18.464;2023-02-01T11:45:31;7.80;;;1.80;;
59587;SDS011;45412;54.472;18.464;2023-02-01T11:48:21;7.10;;;1.60;;
59587;SDS011;45412;54.472;18.464;2023-02-01T11:51:43;8.90;;;2.10;;
59587;SDS011;45412;54.472;18.464;2023-02-01T11:57:57;7.40;;;2.00;;
59587;SDS011;45412;54.472;18.464;2023-02-01T12:01:00;7.00;;;2.00;;
59587;SDS011;45412;54.472;18.464;2023-02-01T12:11:26;9.00;;;2.50;;
59587;SDS011;45412;54.472;18.464;2023-02-01T12:14:59;8.60;;;2.20;;
59587;SDS011;45412;54.472;18.464;2023-02-01T12:18:08;7.10;;;2.00;;
59587;SDS011;45412;54.472;18.464;2023-02-01T12:47:41;7.90;;;1.80;;
59587;SDS011;45412;54.472;18.464;2023-02-01T12:50:49;8.00;;;2.00;;
59587;SDS011;45412;54.472;18.464;2023-02-01T12:56:46;10.00;;;2.30;;
59587;SDS011;45412;54.472;18.464;2023-02-01T12:59:47;9.20;;;1.70;;
59587;SDS011;45412;54.472;18.464;2023-02-01T13:02:48;8.60;;;2.60;;
59587;SDS011;45412;54.472;18.464;2023-02-01T13:05:50;7.80;;;2.10;;
59587;SDS011;45412;54.472;18.464;2023-02-01T13:12:34;7.80;;;2.30;;
59587;SDS011;45412;54.472;18.464;2023-02-01T13:15:39;7.90;;;2.10;;
59587;SDS011;45412;54.472;18.464;2023-02-01T13:18:36;9.70;;;2.70;;
59587;SDS011;45412;54.472;18.464;2023-02-01T13:21:31;9.30;;;2.90;;
59587;SDS011;45412;54.472;18.464;2023-02-01T13:24:32;12.00;;;2.70;;
59587;SDS011;45412;54.472;18.464;2023-02-01T13:27:29;11.20;;;2.80;;
59587;SDS011;45412;54.472;18.464;2023-02-01T13:30:34;12.80;;;2.80;;
59587;SDS011;45412;54.472;18.464;2023-02-01T13:37:00;9.30;;;2.80;;
59587;SDS011;45412;54.472;18.464;2023-02-01T13:43:24;11.60;;;2.80;;
59587;SDS011;45412;54.472;18.464;2023-02-01T13:46:15;12.50;;;2.50;;
59587;SDS011;45412;54.472;18.464;2023-02-01T13:49:05;9.60;;;2.10;;
59587;SDS011;45412;54.472;18.464;2023-02-01T13:51:56;11.10;;;2.10;;
59587;SDS011;45412;54.472;18.464;2023-02-01T13:54:45;8.10;;;2.20;;
59587;SDS011;45412;54.472;18.464;2023-02-01T13:57:38;11.30;;;2.50;;
59587;SDS011;45412;54.472;18.464;2023-02-01T14:00:35;11.20;;;2.90;;
59587;SDS011;45412;54.472;18.464;2023-02-01T14:03:46;13.40;;;3.20;;
59587;SDS011;45412;54.472;18.464;2023-02-01T14:06:42;9.70;;;2.70;;
59587;SDS011;45412;54.472;18.464;2023-02-01T14:09:34;14.50;;;3.00;;
59587;SDS011;45412;54.472;18.464;2023-02-01T14:12:46;12.10;;;2.40;;
59587;SDS011;45412;54.472;18.464;2023-02-01T14:15:36;15.00;;;3.00;;
59587;SDS011;45412;54.472;18.464;2023-02-01T14:21:30;8.00;;;2.00;;
59587;SDS011;45412;54.472;18.464;2023-02-01T14:24:24;6.90;;;1.50;;
59587;SDS011;45412;54.472;18.464;2023-02-01T14:30:07;6.80;;;1.60;;
59587;SDS011;45412;54.472;18.464;2023-02-01T14:33:14;8.60;;;2.20;;
59587;SDS011;45412;54.472;18.464;2023-02-01T14:36:10;6.80;;;2.30;;
59587;SDS011;45412;54.472;18.464;2023-02-01T14:39:02;10.60;;;3.60;;
59587;SDS011;45412;54.472;18.464;2023-02-01T14:41:54;10.10;;;3.00;;
59587;SDS011;45412;54.472;18.464;2023-02-01T14:44:49;8.30;;;2.30;;
59587;SDS011;45412;54.472;18.464;2023-02-01T14:49:09;10.50;;;2.80;;
59587;SDS011;45412;54.472;18.464;2023-02-01T14:51:01;9.50;;;3.00;;
59587;SDS011;45412;54.472;18.464;2023-02-01T14:53:51;9.80;;;3.30;;
59587;SDS011;45412;54.472;18.464;2023-02-01T14:56:39;9.30;;;2.70;;
59587;SDS011;45412;54.472;18.464;2023-02-01T14:59:28;7.90;;;2.60;;
59587;SDS011;45412;54.472;18.464;2023-02-01T15:02:23;9.20;;;2.80;;
59587;SDS011;45412;54.472;18.464;2023-02-01T15:05:27;8.20;;;2.40;;
59587;SDS011;45412;54.472;18.464;2023-02-01T15:08:25;9.80;;;3.20;;
59587;SDS011;45412;54.472;18.464;2023-02-01T15:11:19;7.90;;;2.30;;
59587;SDS011;45412;54.472;18.464;2023-02-01T15:14:12;11.70;;;3.00;;
59587;SDS011;45412;54.472;18.464;2023-02-01T15:17:15;11.30;;;3.00;;
59587;SDS011;45412;54.472;18.464;2023-02-01T15:20:17;9.90;;;3.40;;
59587;SDS011;45412;54.472;18.464;2023-02-01T15:23:17;9.90;;;3.30;;
59587;SDS011;45412;54.472;18.464;2023-02-01T15:26:06;9.60;;;3.10;;
59587;SDS011;45412;54.472;18.464;2023-02-01T15:28:57;12.50;;;4.00;;
59587;SDS011;45412;54.472;18.464;2023-02-01T15:31:51;12.50;;;4.10;;
59587;SDS011;45412;54.472;18.464;2023-02-01T15:34:46;10.30;;;3.40;;
59587;SDS011;45412;54.472;18.464;2023-02-01T15:37:37;10.10;;;2.60;;
59587;SDS011;45412;54.472;18.464;2023-02-01T15:40:28;12.50;;;3.00;;
59587;SDS011;45412;54.472;18.464;2023-02-01T15:43:16;15.40;;;3.90;;
59587;SDS011;45412;54.472;18.464;2023-02-01T15:46:17;12.40;;;3.20;;
59587;SDS011;45412;54.472;18.464;2023-02-01T15:49:26;10.00;;;3.10;;
59587;SDS011;45412;54.472;18.464;2023-02-01T15:52:40;13.20;;;3.90;;
59587;SDS011;45412;54.472;18.464;2023-02-01T15:55:36;11.70;;;3.20;;
59587;SDS011;45412;54.472;18.464;2023-02-01T15:58:33;14.70;;;3.40;;
59587;SDS011;45412;54.472;18.464;2023-02-01T16:01:22;13.10;;;3.50;;
59587;SDS011;45412;54.472;18.464;2023-02-01T16:04:22;17.20;;;4.30;;
59587;SDS011;45412;54.472;18.464;2023-02-01T16:07:27;14.10;;;3.90;;
59587;SDS011;45412;54.472;18.464;2023-02-01T16:10:27;14.90;;;3.50;;
59587;SDS011;45412;54.472;18.464;2023-02-01T16:13:17;13.00;;;3.20;;
59587;SDS011;45412;54.472;18.464;2023-02-01T16:16:07;15.00;;;3.80;;
59587;SDS011;45412;54.472;18.464;2023-02-01T16:19:01;13.10;;;3.30;;
59587;SDS011;45412;54.472;18.464;2023-02-01T16:21:49;12.50;;;3.30;;
59587;SDS011;45412;54.472;18.464;2023-02-01T16:24:40;16.30;;;4.00;;
59587;SDS011;45412;54.472;18.464;2023-02-01T16:27:31;18.50;;;4.10;;
59587;SDS011;45412;54.472;18.464;2023-02-01T16:30:20;17.30;;;4.30;;
59587;SDS011;45412;54.472;18.464;2023-02-01T16:33:17;16.60;;;4.40;;
59587;SDS011;45412;54.472;18.464;2023-02-01T16:36:08;14.60;;;4.50;;
59587;SDS011;45412;54.472;18.464;2023-02-01T16:38:57;18.60;;;4.30;;
59587;SDS011;45412;54.472;18.464;2023-02-01T16:41:46;16.80;;;3.50;;
59587;SDS011;45412;54.472;18.464;2023-02-01T16:44:34;21.10;;;4.80;;
59587;SDS011;45412;54.472;18.464;2023-02-01T16:47:22;19.00;;;5.30;;
59587;SDS011;45412;54.472;18.464;2023-02-01T16:50:20;18.00;;;3.70;;
59587;SDS011;45412;54.472;18.464;2023-02-01T16:53:10;15.60;;;4.10;;
59587;SDS011;45412;54.472;18.464;2023-02-01T16:56:28;15.40;;;4.70;;
59587;SDS011;45412;54.472;18.464;2023-02-01T16:59:18;20.90;;;5.70;;
59587;SDS011;45412;54.472;18.464;2023-02-01T17:02:10;13.50;;;5.00;;
59587;SDS011;45412;54.472;18.464;2023-02-01T17:04:59;17.20;;;4.70;;
59587;SDS011;45412;54.472;18.464;2023-02-01T17:07:47;17.00;;;4.40;;
59587;SDS011;45412;54.472;18.464;2023-02-01T17:10:35;18.60;;;6.00;;
59587;SDS011;45412;54.472;18.464;2023-02-01T17:13:24;21.90;;;7.20;;
59587;SDS011;45412;54.472;18.464;2023-02-01T17:19:09;16.40;;;5.00;;
59587;SDS011;45412;54.472;18.464;2023-02-01T17:22:04;19.20;;;4.70;;
59587;SDS011;45412;54.472;18.464;2023-02-01T17:24:52;19.40;;;5.40;;
59587;SDS011;45412;54.472;18.464;2023-02-01T17:27:41;16.60;;;4.80;;
59587;SDS011;45412;54.472;18.464;2023-02-01T17:30:28;16.50;;;4.90;;
59587;SDS011;45412;54.472;18.464;2023-02-01T17:36:22;14.00;;;3.70;;
59587;SDS011;45412;54.472;18.464;2023-02-01T17:39:12;12.50;;;3.50;;
59587;SDS011;45412;54.472;18.464;2023-02-01T17:42:21;14.60;;;3.80;;
59587;SDS011;45412;54.472;18.464;2023-02-01T17:45:56;16.50;;;3.30;;
59587;SDS011;45412;54.472;18.464;2023-02-01T17:48:45;15.80;;;4.10;;
59587;SDS011;45412;54.472;18.464;2023-02-01T17:51:34;14.00;;;3.70;;
59587;SDS011;45412;54.472;18.464;2023-02-01T17:54:26;13.10;;;3.30;;
59587;SDS011;45412;54.472;18.464;2023-02-01T17:57:14;12.80;;;3.50;;
59587;SDS011;45412;54.472;18.464;2023-02-01T18:00:03;14.50;;;4.70;;
59587;SDS011;45412;54.472;18.464;2023-02-01T18:02:52;17.40;;;4.00;;
59587;SDS011;45412;54.472;18.464;2023-02-01T18:05:43;15.00;;;4.00;;
59587;SDS011;45412;54.472;18.464;2023-02-01T18:08:38;16.20;;;4.50;;
59587;SDS011;45412;54.472;18.464;2023-02-01T18:11:26;17.10;;;3.80;;
59587;SDS011;45412;54.472;18.464;2023-02-01T18:14:14;13.90;;;3.80;;
59587;SDS011;45412;54.472;18.464;2023-02-01T18:17:02;13.30;;;3.40;;
59587;SDS011;45412;54.472;18.464;2023-02-01T18:19:53;14.70;;;3.70;;
59587;SDS011;45412;54.472;18.464;2023-02-01T18:22:44;20.90;;;4.70;;
59587;SDS011;45412;54.472;18.464;2023-02-01T18:25:35;11.50;;;3.70;;
59587;SDS011;45412;54.472;18.464;2023-02-01T18:28:25;12.80;;;3.70;;
59587;SDS011;45412;54.472;18.464;2023-02-01T18:31:31;13.70;;;3.70;;
59587;SDS011;45412;54.472;18.464;2023-02-01T18:34:22;13.50;;;2.80;;
59587;SDS011;45412;54.472;18.464;2023-02-01T18:37:11;13.60;;;3.50;;
59587;SDS011;45412;54.472;18.464;2023-02-01T18:40:00;10.70;;;3.20;;
59587;SDS011;45412;54.472;18.464;2023-02-01T18:42:48;12.90;;;3.20;;
59587;SDS011;45412;54.472;18.464;2023-02-01T18:45:37;16.90;;;3.30;;
59587;SDS011;45412;54.472;18.464;2023-02-01T18:48:27;12.00;;;3.00;;
59587;SDS011;45412;54.472;18.464;2023-02-01T18:51:17;14.00;;;2.80;;
59587;SDS011;45412;54.472;18.464;2023-02-01T18:54:07;13.90;;;3.50;;